sensor_id;sensor_type;location;lat;lon;timestamp;P1;durP1;ratioP1;P2;durP2;ratioP2
5414;SDS011;2730;51.512;7.504;2023-11-21T00:02:26;11.40;;;6.88;;
5414;SDS011;2730;51.512;7.504;2023-11-21T00:04:53;14.57;;;7.07;;
5414;SDS011;2730;51.512;7.504;2023-11-21T00:07:20;17.70;;;7.40;;
5414;SDS011;2730;51.512;7.504;2023-11-21T00:09:46;12.23;;;6.88;;
5414;SDS011;2730;51.512;7.504;2023-11-21T00:12:14;12.82;;;7.32;;
5414;SDS011;2730;51.512;7.504;2023-11-21T00:14:40;17.88;;;7.85;;
5414;SDS011;2730;51.512;7.504;2023-11-21T00:17:08;12.27;;;6.65;;
5414;SDS011;2730;51.512;7.504;2023-11-21T00:19:36;12.10;;;6.97;;
5414;SDS011;2730;51.512;7.504;2023-11-21T00:22:03;17.75;;;7.90;;
5414;SDS011;2730;51.512;7.504;2023-11-21T00:24:31;21.20;;;7.35;;
5414;SDS011;2730;51.512;7.504;2023-11-21T00:26:58;15.15;;;6.95;;
5414;SDS011;2730;51.512;7.504;2023-11-21T00:29:25;12.38;;;7.22;;
5414;SDS011;2730;51.512;7.504;2023-11-21T00:31:52;16.52;;;7.15;;
5414;SDS011;2730;51.512;7.504;2023-11-21T00:34:18;15.50;;;6.80;;
5414;SDS011;2730;51.512;7.504;2023-11-21T00:36:47;19.48;;;6.60;;
5414;SDS011;2730;51.512;7.504;2023-11-21T00:39:14;13.48;;;6.53;;
5414;SDS011;2730;51.512;7.504;2023-11-21T00:41:40;18.25;;;7.80;;
5414;SDS011;2730;51.512;7.504;2023-11-21T00:44:09;17.75;;;7.57;;
5414;SDS011;2730;51.512;7.504;2023-11-21T00:46:36;15.35;;;7.03;;
5414;SDS011;2730;51.512;7.504;2023-11-21T00:49:03;15.90;;;6.85;;
5414;SDS011;2730;51.512;7.504;2023-11-21T00:51:30;12.27;;;5.90;;
5414;SDS011;2730;51.512;7.504;2023-11-21T00:53:58;15.27;;;6.43;;
5414;SDS011;2730;51.512;7.504;2023-11-21T00:56:25;13.02;;;6.07;;
5414;SDS011;2730;51.512;7.504;2023-11-21T00:58:52;21.98;;;6.13;;
5414;SDS011;2730;51.512;7.504;2023-11-21T01:01:19;11.80;;;6.75;;
5414;SDS011;2730;51.512;7.504;2023-11-21T01:03:47;12.43;;;6.60;;
5414;SDS011;2730;51.512;7.504;2023-11-21T01:06:13;13.43;;;6.45;;
5414;SDS011;2730;51.512;7.504;2023-11-21T01:08:40;17.65;;;7.22;;
5414;SDS011;2730;51.512;7.504;2023-11-21T01:11:09;14.63;;;7.80;;
5414;SDS011;2730;51.512;7.504;2023-11-21T01:13:37;16.17;;;6.15;;
5414;SDS011;2730;51.512;7.504;2023-11-21T01:16:04;10.95;;;6.70;;
5414;SDS011;2730;51.512;7.504;2023-11-21T01:18:33;23.08;;;6.68;;
5414;SDS011;2730;51.512;7.504;2023-11-21T01:21:01;19.90;;;6.75;;
5414;SDS011;2730;51.512;7.504;2023-11-21T01:23:27;19.80;;;6.45;;
5414;SDS011;2730;51.512;7.504;2023-11-21T01:25:55;12.90;;;6.22;;
5414;SDS011;2730;51.512;7.504;2023-11-21T01:28:24;19.67;;;6.78;;
5414;SDS011;2730;51.512;7.504;2023-11-21T01:30:51;12.82;;;6.15;;
5414;SDS011;2730;51.512;7.504;2023-11-21T01:33:21;12.57;;;6.35;;
5414;SDS011;2730;51.512;7.504;2023-11-21T01:35:50;13.63;;;6.43;;
5414;SDS011;2730;51.512;7.504;2023-11-21T01:38:20;22.60;;;7.10;;
5414;SDS011;2730;51.512;7.504;2023-11-21T01:40:47;11.40;;;6.88;;
5414;SDS011;2730;51.512;7.504;2023-11-21T01:43:14;13.02;;;6.57;;
5414;SDS011;2730;51.512;7.504;2023-11-21T01:45:43;23.67;;;6.35;;
5414;SDS011;2730;51.512;7.504;2023-11-21T01:48:10;11.15;;;7.00;;
5414;SDS011;2730;51.512;7.504;2023-11-21T01:50:39;13.05;;;5.45;;
5414;SDS011;2730;51.512;7.504;2023-11-21T01:53:06;11.00;;;6.05;;
5414;SDS011;2730;51.512;7.504;2023-11-21T01:55:33;18.80;;;7.07;;
5414;SDS011;2730;51.512;7.504;2023-11-21T01:58:00;10.38;;;6.45;;
5414;SDS011;2730;51.512;7.504;2023-11-21T02:00:27;12.82;;;6.75;;
5414;SDS011;2730;51.512;7.504;2023-11-21T02:02:55;12.10;;;6.00;;
5414;SDS011;2730;51.512;7.504;2023-11-21T02:05:23;9.25;;;6.00;;
5414;SDS011;2730;51.512;7.504;2023-11-21T02:07:51;10.27;;;6.03;;
5414;SDS011;2730;51.512;7.504;2023-11-21T02:10:17;15.43;;;6.88;;
5414;SDS011;2730;51.512;7.504;2023-11-21T02:12:47;15.48;;;6.88;;
5414;SDS011;2730;51.512;7.504;2023-11-21T02:15:15;18.13;;;6.95;;
5414;SDS011;2730;51.512;7.504;2023-11-21T02:17:45;14.70;;;7.53;;
5414;SDS011;2730;51.512;7.504;2023-11-21T02:20:13;11.93;;;7.38;;
5414;SDS011;2730;51.512;7.504;2023-11-21T02:22:40;21.60;;;6.90;;
5414;SDS011;2730;51.512;7.504;2023-11-21T02:25:09;16.73;;;7.43;;
5414;SDS011;2730;51.512;7.504;2023-11-21T02:27:36;16.90;;;8.40;;
5414;SDS011;2730;51.512;7.504;2023-11-21T02:30:03;11.93;;;6.60;;
5414;SDS011;2730;51.512;7.504;2023-11-21T02:32:32;28.58;;;7.82;;
5414;SDS011;2730;51.512;7.504;2023-11-21T02:34:59;22.40;;;7.53;;
5414;SDS011;2730;51.512;7.504;2023-11-21T02:37:27;18.42;;;7.32;;
5414;SDS011;2730;51.512;7.504;2023-11-21T02:39:54;12.85;;;7.90;;
5414;SDS011;2730;51.512;7.504;2023-11-21T02:42:22;17.42;;;8.63;;
5414;SDS011;2730;51.512;7.504;2023-11-21T02:44:49;14.93;;;6.85;;
5414;SDS011;2730;51.512;7.504;2023-11-21T02:47:16;14.30;;;7.10;;
5414;SDS011;2730;51.512;7.504;2023-11-21T02:49:43;15.05;;;6.88;;
5414;SDS011;2730;51.512;7.504;2023-11-21T02:52:09;13.35;;;7.35;;
5414;SDS011;2730;51.512;7.504;2023-11-21T02:54:36;17.77;;;7.28;;
5414;SDS011;2730;51.512;7.504;2023-11-21T02:57:03;17.40;;;7.30;;
5414;SDS011;2730;51.512;7.504;2023-11-21T02:59:32;15.80;;;6.63;;
5414;SDS011;2730;51.512;7.504;2023-11-21T03:01:59;16.50;;;8.05;;
5414;SDS011;2730;51.512;7.504;2023-11-21T03:04:26;13.18;;;7.53;;
5414;SDS011;2730;51.512;7.504;2023-11-21T03:06:53;19.20;;;7.15;;
5414;SDS011;2730;51.512;7.504;2023-11-21T03:09:20;21.85;;;7.18;;
5414;SDS011;2730;51.512;7.504;2023-11-21T03:11:47;13.55;;;6.32;;
5414;SDS011;2730;51.512;7.504;2023-11-21T03:14:14;15.75;;;6.82;;
5414;SDS011;2730;51.512;7.504;2023-11-21T03:16:42;15.88;;;8.30;;
5414;SDS011;2730;51.512;7.504;2023-11-21T03:19:10;12.50;;;6.97;;
5414;SDS011;2730;51.512;7.504;2023-11-21T03:21:37;13.75;;;7.25;;
5414;SDS011;2730;51.512;7.504;2023-11-21T03:24:04;22.92;;;8.15;;
5414;SDS011;2730;51.512;7.504;2023-11-21T03:26:32;16.38;;;7.75;;
5414;SDS011;2730;51.512;7.504;2023-11-21T03:28:59;14.70;;;7.68;;
5414;SDS011;2730;51.512;7.504;2023-11-21T03:31:26;21.60;;;7.35;;
5414;SDS011;2730;51.512;7.504;2023-11-21T03:33:54;14.95;;;7.07;;
5414;SDS011;2730;51.512;7.504;2023-11-21T03:36:21;11.88;;;7.40;;
5414;SDS011;2730;51.512;7.504;2023-11-21T03:38:50;16.75;;;8.05;;
5414;SDS011;2730;51.512;7.504;2023-11-21T03:41:17;19.10;;;8.20;;
5414;SDS011;2730;51.512;7.504;2023-11-21T03:43:43;17.73;;;8.45;;
5414;SDS011;2730;51.512;7.504;2023-11-21T03:46:10;18.08;;;7.65;;
5414;SDS011;2730;51.512;7.504;2023-11-21T03:48:37;11.73;;;7.70;;
5414;SDS011;2730;51.512;7.504;2023-11-21T03:51:06;20.85;;;7.38;;
5414;SDS011;2730;51.512;7.504;2023-11-21T03:53:33;16.95;;;7.55;;
5414;SDS011;2730;51.512;7.504;2023-11-21T03:56:01;26.00;;;8.43;;
5414;SDS011;2730;51.512;7.504;2023-11-21T03:58:29;20.23;;;8.57;;
5414;SDS011;2730;51.512;7.504;2023-11-21T04:00:56;21.27;;;8.60;;
5414;SDS011;2730;51.512;7.504;2023-11-21T04:03:23;23.85;;;9.77;;
5414;SDS011;2730;51.512;7.504;2023-11-21T04:05:49;14.88;;;7.07;;
5414;SDS011;2730;51.512;7.504;2023-11-21T04:08:17;15.27;;;7.85;;
5414;SDS011;2730;51.512;7.504;2023-11-21T04:10:44;21.73;;;6.93;;
5414;SDS011;2730;51.512;7.504;2023-11-21T04:13:11;21.05;;;9.38;;
5414;SDS011;2730;51.512;7.504;2023-11-21T04:15:38;18.60;;;8.93;;
5414;SDS011;2730;51.512;7.504;2023-11-21T04:18:05;17.77;;;8.80;;
5414;SDS011;2730;51.512;7.504;2023-11-21T04:20:32;21.58;;;8.07;;
5414;SDS011;2730;51.512;7.504;2023-11-21T04:22:59;23.77;;;8.82;;
5414;SDS011;2730;51.512;7.504;2023-11-21T04:25:27;14.93;;;7.70;;
5414;SDS011;2730;51.512;7.504;2023-11-21T04:27:54;21.63;;;8.18;;
5414;SDS011;2730;51.512;7.504;2023-11-21T04:30:21;15.25;;;7.13;;
5414;SDS011;2730;51.512;7.504;2023-11-21T04:32:47;17.02;;;7.80;;
5414;SDS011;2730;51.512;7.504;2023-11-21T04:35:15;18.58;;;7.32;;
5414;SDS011;2730;51.512;7.504;2023-11-21T04:37:42;15.15;;;7.93;;
5414;SDS011;2730;51.512;7.504;2023-11-21T04:40:10;25.80;;;7.80;;
5414;SDS011;2730;51.512;7.504;2023-11-21T04:42:38;18.98;;;7.88;;
5414;SDS011;2730;51.512;7.504;2023-11-21T04:45:06;20.92;;;8.07;;
5414;SDS011;2730;51.512;7.504;2023-11-21T04:47:36;23.98;;;9.30;;
5414;SDS011;2730;51.512;7.504;2023-11-21T04:50:03;13.55;;;7.50;;
5414;SDS011;2730;51.512;7.504;2023-11-21T04:52:31;24.30;;;7.72;;
5414;SDS011;2730;51.512;7.504;2023-11-21T04:54:58;20.60;;;8.95;;
5414;SDS011;2730;51.512;7.504;2023-11-21T04:57:26;24.58;;;9.00;;
5414;SDS011;2730;51.512;7.504;2023-11-21T04:59:55;18.73;;;8.20;;
5414;SDS011;2730;51.512;7.504;2023-11-21T05:02:22;18.17;;;8.25;;
5414;SDS011;2730;51.512;7.504;2023-11-21T05:04:49;19.95;;;9.55;;
5414;SDS011;2730;51.512;7.504;2023-11-21T05:07:16;29.48;;;8.55;;
5414;SDS011;2730;51.512;7.504;2023-11-21T05:09:43;15.43;;;7.93;;
5414;SDS011;2730;51.512;7.504;2023-11-21T05:12:11;23.60;;;8.40;;
5414;SDS011;2730;51.512;7.504;2023-11-21T05:14:37;25.33;;;7.77;;
5414;SDS011;2730;51.512;7.504;2023-11-21T05:17:05;14.40;;;7.22;;
5414;SDS011;2730;51.512;7.504;2023-11-21T05:19:33;18.02;;;8.10;;
5414;SDS011;2730;51.512;7.504;2023-11-21T05:22:00;16.20;;;7.25;;
5414;SDS011;2730;51.512;7.504;2023-11-21T05:24:27;17.48;;;7.32;;
5414;SDS011;2730;51.512;7.504;2023-11-21T05:26:54;21.75;;;7.90;;
5414;SDS011;2730;51.512;7.504;2023-11-21T05:29:22;18.88;;;8.40;;
5414;SDS011;2730;51.512;7.504;2023-11-21T05:31:49;20.70;;;8.55;;
5414;SDS011;2730;51.512;7.504;2023-11-21T05:34:17;19.80;;;8.77;;
5414;SDS011;2730;51.512;7.504;2023-11-21T05:36:45;17.40;;;8.75;;
5414;SDS011;2730;51.512;7.504;2023-11-21T05:39:13;15.02;;;7.88;;
5414;SDS011;2730;51.512;7.504;2023-11-21T05:41:42;21.15;;;9.70;;
5414;SDS011;2730;51.512;7.504;2023-11-21T05:44:09;21.50;;;9.45;;
5414;SDS011;2730;51.512;7.504;2023-11-21T05:46:35;22.98;;;7.80;;
5414;SDS011;2730;51.512;7.504;2023-11-21T05:49:02;18.27;;;8.95;;
5414;SDS011;2730;51.512;7.504;2023-11-21T05:51:30;28.88;;;10.07;;
5414;SDS011;2730;51.512;7.504;2023-11-21T05:53:57;25.70;;;10.63;;
5414;SDS011;2730;51.512;7.504;2023-11-21T05:56:24;25.30;;;9.05;;
5414;SDS011;2730;51.512;7.504;2023-11-21T05:58:51;23.27;;;9.57;;
5414;SDS011;2730;51.512;7.504;2023-11-21T06:01:18;25.00;;;8.65;;
5414;SDS011;2730;51.512;7.504;2023-11-21T06:03:45;18.42;;;8.20;;
5414;SDS011;2730;51.512;7.504;2023-11-21T06:06:11;23.05;;;10.25;;
5414;SDS011;2730;51.512;7.504;2023-11-21T06:08:40;25.85;;;10.55;;
5414;SDS011;2730;51.512;7.504;2023-11-21T06:11:07;26.13;;;9.73;;
5414;SDS011;2730;51.512;7.504;2023-11-21T06:13:36;30.75;;;10.13;;
5414;SDS011;2730;51.512;7.504;2023-11-21T06:16:03;21.35;;;8.27;;
5414;SDS011;2730;51.512;7.504;2023-11-21T06:18:30;25.88;;;9.00;;
5414;SDS011;2730;51.512;7.504;2023-11-21T06:20:57;31.08;;;10.55;;
5414;SDS011;2730;51.512;7.504;2023-11-21T06:23:25;27.83;;;11.23;;
5414;SDS011;2730;51.512;7.504;2023-11-21T06:25:53;21.17;;;9.88;;
5414;SDS011;2730;51.512;7.504;2023-11-21T06:28:20;27.00;;;10.15;;
5414;SDS011;2730;51.512;7.504;2023-11-21T06:30:47;24.35;;;9.20;;
5414;SDS011;2730;51.512;7.504;2023-11-21T06:33:15;22.40;;;10.02;;
5414;SDS011;2730;51.512;7.504;2023-11-21T06:35:42;21.17;;;8.43;;
5414;SDS011;2730;51.512;7.504;2023-11-21T06:38:09;21.17;;;9.38;;
5414;SDS011;2730;51.512;7.504;2023-11-21T06:40:36;24.33;;;9.32;;
5414;SDS011;2730;51.512;7.504;2023-11-21T06:43:05;33.00;;;10.65;;
5414;SDS011;2730;51.512;7.504;2023-11-21T06:45:32;29.30;;;10.50;;
5414;SDS011;2730;51.512;7.504;2023-11-21T06:48:00;28.23;;;9.30;;
5414;SDS011;2730;51.512;7.504;2023-11-21T06:50:27;29.95;;;9.80;;
5414;SDS011;2730;51.512;7.504;2023-11-21T06:52:53;30.77;;;10.05;;
5414;SDS011;2730;51.512;7.504;2023-11-21T06:55:20;22.30;;;9.68;;
5414;SDS011;2730;51.512;7.504;2023-11-21T06:57:47;21.95;;;9.63;;
5414;SDS011;2730;51.512;7.504;2023-11-21T07:00:16;29.55;;;10.82;;
5414;SDS011;2730;51.512;7.504;2023-11-21T07:02:44;31.33;;;10.43;;
5414;SDS011;2730;51.512;7.504;2023-11-21T07:05:10;31.13;;;10.15;;
5414;SDS011;2730;51.512;7.504;2023-11-21T07:07:39;22.88;;;9.20;;
5414;SDS011;2730;51.512;7.504;2023-11-21T07:10:06;27.80;;;9.75;;
5414;SDS011;2730;51.512;7.504;2023-11-21T07:12:34;23.77;;;10.05;;
5414;SDS011;2730;51.512;7.504;2023-11-21T07:15:01;20.80;;;9.77;;
5414;SDS011;2730;51.512;7.504;2023-11-21T07:17:32;29.55;;;9.45;;
5414;SDS011;2730;51.512;7.504;2023-11-21T07:20:00;21.50;;;8.80;;
5414;SDS011;2730;51.512;7.504;2023-11-21T07:22:27;35.78;;;9.57;;
5414;SDS011;2730;51.512;7.504;2023-11-21T07:24:54;30.75;;;11.25;;
5414;SDS011;2730;51.512;7.504;2023-11-21T07:27:22;27.90;;;10.32;;
5414;SDS011;2730;51.512;7.504;2023-11-21T07:29:49;43.78;;;12.43;;
5414;SDS011;2730;51.512;7.504;2023-11-21T07:32:16;28.92;;;12.30;;
5414;SDS011;2730;51.512;7.504;2023-11-21T07:34:44;31.00;;;10.68;;
5414;SDS011;2730;51.512;7.504;2023-11-21T07:37:11;26.30;;;10.88;;
5414;SDS011;2730;51.512;7.504;2023-11-21T07:39:38;29.40;;;11.68;;
5414;SDS011;2730;51.512;7.504;2023-11-21T07:42:07;29.50;;;10.35;;
5414;SDS011;2730;51.512;7.504;2023-11-21T07:44:34;27.10;;;12.00;;
5414;SDS011;2730;51.512;7.504;2023-11-21T07:47:01;23.77;;;8.77;;
5414;SDS011;2730;51.512;7.504;2023-11-21T07:49:29;28.85;;;12.27;;
5414;SDS011;2730;51.512;7.504;2023-11-21T07:51:57;31.13;;;10.85;;
5414;SDS011;2730;51.512;7.504;2023-11-21T07:54:24;23.60;;;10.80;;
5414;SDS011;2730;51.512;7.504;2023-11-21T07:56:51;28.05;;;10.63;;
5414;SDS011;2730;51.512;7.504;2023-11-21T07:59:18;34.65;;;11.35;;
5414;SDS011;2730;51.512;7.504;2023-11-21T08:01:45;33.97;;;10.73;;
5414;SDS011;2730;51.512;7.504;2023-11-21T08:04:11;25.00;;;11.77;;
5414;SDS011;2730;51.512;7.504;2023-11-21T08:06:38;36.50;;;12.27;;
5414;SDS011;2730;51.512;7.504;2023-11-21T08:09:08;34.20;;;12.57;;
5414;SDS011;2730;51.512;7.504;2023-11-21T08:11:37;35.03;;;11.95;;
5414;SDS011;2730;51.512;7.504;2023-11-21T08:14:04;28.65;;;12.68;;
5414;SDS011;2730;51.512;7.504;2023-11-21T08:16:31;46.38;;;14.55;;
5414;SDS011;2730;51.512;7.504;2023-11-21T08:18:57;26.77;;;10.48;;
5414;SDS011;2730;51.512;7.504;2023-11-21T08:21:24;24.95;;;12.77;;
5414;SDS011;2730;51.512;7.504;2023-11-21T08:23:52;26.65;;;10.23;;
5414;SDS011;2730;51.512;7.504;2023-11-21T08:26:20;23.00;;;10.55;;
5414;SDS011;2730;51.512;7.504;2023-11-21T08:28:47;30.52;;;10.40;;
5414;SDS011;2730;51.512;7.504;2023-11-21T08:31:14;25.30;;;11.23;;
5414;SDS011;2730;51.512;7.504;2023-11-21T08:33:41;31.45;;;11.68;;
5414;SDS011;2730;51.512;7.504;2023-11-21T08:36:08;25.15;;;10.30;;
5414;SDS011;2730;51.512;7.504;2023-11-21T08:38:36;21.67;;;9.57;;
5414;SDS011;2730;51.512;7.504;2023-11-21T08:41:05;29.00;;;10.10;;
5414;SDS011;2730;51.512;7.504;2023-11-21T08:43:47;32.15;;;9.63;;
5414;SDS011;2730;51.512;7.504;2023-11-21T08:46:16;26.58;;;10.80;;
5414;SDS011;2730;51.512;7.504;2023-11-21T08:48:43;29.88;;;12.05;;
5414;SDS011;2730;51.512;7.504;2023-11-21T08:51:10;25.00;;;10.30;;
5414;SDS011;2730;51.512;7.504;2023-11-21T08:53:38;23.58;;;10.52;;
5414;SDS011;2730;51.512;7.504;2023-11-21T08:56:05;34.75;;;11.38;;
5414;SDS011;2730;51.512;7.504;2023-11-21T08:58:36;26.23;;;11.75;;
5414;SDS011;2730;51.512;7.504;2023-11-21T09:01:19;34.38;;;13.60;;
5414;SDS011;2730;51.512;7.504;2023-11-21T09:03:46;32.88;;;13.18;;
5414;SDS011;2730;51.512;7.504;2023-11-21T09:06:13;32.90;;;13.95;;
5414;SDS011;2730;51.512;7.504;2023-11-21T09:08:39;33.28;;;12.32;;
5414;SDS011;2730;51.512;7.504;2023-11-21T09:11:06;33.80;;;13.93;;
5414;SDS011;2730;51.512;7.504;2023-11-21T09:13:34;36.35;;;12.25;;
5414;SDS011;2730;51.512;7.504;2023-11-21T09:16:01;31.15;;;12.20;;
5414;SDS011;2730;51.512;7.504;2023-11-21T09:18:29;36.90;;;13.80;;
5414;SDS011;2730;51.512;7.504;2023-11-21T09:20:56;33.47;;;12.23;;
5414;SDS011;2730;51.512;7.504;2023-11-21T09:23:23;38.20;;;12.40;;
5414;SDS011;2730;51.512;7.504;2023-11-21T09:25:50;35.97;;;12.18;;
5414;SDS011;2730;51.512;7.504;2023-11-21T09:28:19;35.70;;;13.48;;
5414;SDS011;2730;51.512;7.504;2023-11-21T09:30:46;34.22;;;12.77;;
5414;SDS011;2730;51.512;7.504;2023-11-21T09:33:15;39.25;;;13.50;;
5414;SDS011;2730;51.512;7.504;2023-11-21T09:35:43;40.30;;;14.18;;
5414;SDS011;2730;51.512;7.504;2023-11-21T09:38:10;35.90;;;14.02;;
5414;SDS011;2730;51.512;7.504;2023-11-21T09:40:36;43.13;;;15.27;;
5414;SDS011;2730;51.512;7.504;2023-11-21T09:43:05;46.67;;;15.35;;
5414;SDS011;2730;51.512;7.504;2023-11-21T09:45:34;62.05;;;15.05;;
5414;SDS011;2730;51.512;7.504;2023-11-21T09:48:02;43.17;;;15.63;;
5414;SDS011;2730;51.512;7.504;2023-11-21T09:50:30;45.83;;;15.40;;
5414;SDS011;2730;51.512;7.504;2023-11-21T09:53:02;42.85;;;15.43;;
5414;SDS011;2730;51.512;7.504;2023-11-21T09:55:39;46.55;;;14.85;;
5414;SDS011;2730;51.512;7.504;2023-11-21T09:58:09;50.20;;;16.10;;
5414;SDS011;2730;51.512;7.504;2023-11-21T10:00:37;50.42;;;15.98;;
5414;SDS011;2730;51.512;7.504;2023-11-21T10:03:06;42.40;;;16.52;;
5414;SDS011;2730;51.512;7.504;2023-11-21T10:05:34;59.20;;;16.63;;
5414;SDS011;2730;51.512;7.504;2023-11-21T10:08:02;52.00;;;16.95;;
5414;SDS011;2730;51.512;7.504;2023-11-21T10:10:31;40.85;;;16.10;;
5414;SDS011;2730;51.512;7.504;2023-11-21T10:13:01;45.35;;;13.98;;
5414;SDS011;2730;51.512;7.504;2023-11-21T10:15:33;50.60;;;15.95;;
5414;SDS011;2730;51.512;7.504;2023-11-21T10:18:02;44.70;;;15.55;;
5414;SDS011;2730;51.512;7.504;2023-11-21T10:20:31;37.80;;;14.77;;
5414;SDS011;2730;51.512;7.504;2023-11-21T10:22:59;38.83;;;14.32;;
5414;SDS011;2730;51.512;7.504;2023-11-21T10:25:28;32.35;;;13.52;;
5414;SDS011;2730;51.512;7.504;2023-11-21T10:27:57;43.95;;;14.70;;
5414;SDS011;2730;51.512;7.504;2023-11-21T10:30:31;45.03;;;14.98;;
5414;SDS011;2730;51.512;7.504;2023-11-21T10:33:02;42.55;;;15.32;;
5414;SDS011;2730;51.512;7.504;2023-11-21T10:35:38;40.83;;;13.73;;
5414;SDS011;2730;51.512;7.504;2023-11-21T10:38:13;36.85;;;14.25;;
5414;SDS011;2730;51.512;7.504;2023-11-21T10:40:40;41.65;;;13.27;;
5414;SDS011;2730;51.512;7.504;2023-11-21T10:43:07;40.22;;;13.63;;
5414;SDS011;2730;51.512;7.504;2023-11-21T10:45:35;36.95;;;13.35;;
5414;SDS011;2730;51.512;7.504;2023-11-21T10:48:04;44.35;;;13.75;;
5414;SDS011;2730;51.512;7.504;2023-11-21T10:50:33;37.17;;;15.02;;
5414;SDS011;2730;51.512;7.504;2023-11-21T10:53:01;37.15;;;14.60;;
5414;SDS011;2730;51.512;7.504;2023-11-21T10:55:30;33.67;;;14.15;;
5414;SDS011;2730;51.512;7.504;2023-11-21T10:57:58;36.92;;;13.35;;
5414;SDS011;2730;51.512;7.504;2023-11-21T11:00:27;37.08;;;12.75;;
5414;SDS011;2730;51.512;7.504;2023-11-21T11:02:55;38.30;;;13.95;;
5414;SDS011;2730;51.512;7.504;2023-11-21T11:05:24;44.92;;;14.90;;
5414;SDS011;2730;51.512;7.504;2023-11-21T11:07:54;45.22;;;14.88;;
5414;SDS011;2730;51.512;7.504;2023-11-21T11:10:26;46.78;;;15.35;;
5414;SDS011;2730;51.512;7.504;2023-11-21T11:12:55;48.03;;;16.48;;
5414;SDS011;2730;51.512;7.504;2023-11-21T11:15:23;36.53;;;14.23;;
5414;SDS011;2730;51.512;7.504;2023-11-21T11:17:50;32.88;;;13.60;;
5414;SDS011;2730;51.512;7.504;2023-11-21T11:20:22;35.72;;;13.10;;
5414;SDS011;2730;51.512;7.504;2023-11-21T11:22:56;33.53;;;13.18;;
5414;SDS011;2730;51.512;7.504;2023-11-21T11:25:49;35.80;;;14.57;;
5414;SDS011;2730;51.512;7.504;2023-11-21T11:28:29;41.17;;;14.40;;
5414;SDS011;2730;51.512;7.504;2023-11-21T11:31:04;39.58;;;17.27;;
5414;SDS011;2730;51.512;7.504;2023-11-21T11:33:38;52.15;;;17.92;;
5414;SDS011;2730;51.512;7.504;2023-11-21T11:36:10;48.75;;;16.13;;
5414;SDS011;2730;51.512;7.504;2023-11-21T11:38:45;49.63;;;17.25;;
5414;SDS011;2730;51.512;7.504;2023-11-21T11:41:19;50.30;;;15.05;;
5414;SDS011;2730;51.512;7.504;2023-11-21T11:43:53;49.95;;;16.77;;
5414;SDS011;2730;51.512;7.504;2023-11-21T11:46:20;55.55;;;17.10;;
5414;SDS011;2730;51.512;7.504;2023-11-21T11:49:06;70.63;;;18.10;;
5414;SDS011;2730;51.512;7.504;2023-11-21T11:51:33;51.78;;;18.65;;
5414;SDS011;2730;51.512;7.504;2023-11-21T11:54:01;60.13;;;20.40;;
5414;SDS011;2730;51.512;7.504;2023-11-21T11:56:28;53.35;;;19.42;;
5414;SDS011;2730;51.512;7.504;2023-11-21T11:58:59;54.92;;;18.48;;
5414;SDS011;2730;51.512;7.504;2023-11-21T12:01:28;53.42;;;18.80;;
5414;SDS011;2730;51.512;7.504;2023-11-21T12:07:00;48.72;;;17.48;;
5414;SDS011;2730;51.512;7.504;2023-11-21T12:09:28;45.45;;;15.30;;
5414;SDS011;2730;51.512;7.504;2023-11-21T12:11:57;46.10;;;16.40;;
5414;SDS011;2730;51.512;7.504;2023-11-21T12:14:26;42.22;;;14.90;;
5414;SDS011;2730;51.512;7.504;2023-11-21T12:16:54;36.00;;;15.30;;
5414;SDS011;2730;51.512;7.504;2023-11-21T12:19:21;35.53;;;14.23;;
5414;SDS011;2730;51.512;7.504;2023-11-21T12:21:48;33.97;;;13.75;;
5414;SDS011;2730;51.512;7.504;2023-11-21T12:24:16;38.45;;;13.95;;
5414;SDS011;2730;51.512;7.504;2023-11-21T12:26:43;36.80;;;12.73;;
5414;SDS011;2730;51.512;7.504;2023-11-21T12:29:10;40.92;;;13.68;;
5414;SDS011;2730;51.512;7.504;2023-11-21T12:31:38;30.83;;;12.40;;
5414;SDS011;2730;51.512;7.504;2023-11-21T12:34:06;35.50;;;12.32;;
5414;SDS011;2730;51.512;7.504;2023-11-21T12:36:36;26.60;;;10.43;;
5414;SDS011;2730;51.512;7.504;2023-11-21T12:39:03;30.92;;;11.98;;
5414;SDS011;2730;51.512;7.504;2023-11-21T12:41:30;20.42;;;9.65;;
5414;SDS011;2730;51.512;7.504;2023-11-21T12:43:57;22.08;;;9.52;;
5414;SDS011;2730;51.512;7.504;2023-11-21T12:46:24;17.30;;;9.00;;
5414;SDS011;2730;51.512;7.504;2023-11-21T12:48:55;17.40;;;7.88;;
5414;SDS011;2730;51.512;7.504;2023-11-21T12:51:23;16.02;;;7.60;;
5414;SDS011;2730;51.512;7.504;2023-11-21T12:53:50;20.17;;;8.00;;
5414;SDS011;2730;51.512;7.504;2023-11-21T12:56:17;18.50;;;8.20;;
5414;SDS011;2730;51.512;7.504;2023-11-21T12:58:48;17.42;;;8.10;;
5414;SDS011;2730;51.512;7.504;2023-11-21T13:01:16;22.63;;;7.90;;
5414;SDS011;2730;51.512;7.504;2023-11-21T13:03:45;17.85;;;7.93;;
5414;SDS011;2730;51.512;7.504;2023-11-21T13:06:17;22.67;;;7.40;;
5414;SDS011;2730;51.512;7.504;2023-11-21T13:08:44;28.92;;;7.30;;
5414;SDS011;2730;51.512;7.504;2023-11-21T13:11:12;15.57;;;7.28;;
5414;SDS011;2730;51.512;7.504;2023-11-21T13:13:40;12.45;;;6.40;;
5414;SDS011;2730;51.512;7.504;2023-11-21T13:16:08;16.30;;;7.47;;
5414;SDS011;2730;51.512;7.504;2023-11-21T13:18:36;14.20;;;6.95;;
5414;SDS011;2730;51.512;7.504;2023-11-21T13:21:05;17.00;;;6.97;;
5414;SDS011;2730;51.512;7.504;2023-11-21T13:23:38;16.35;;;6.97;;
5414;SDS011;2730;51.512;7.504;2023-11-21T13:26:06;13.50;;;6.65;;
5414;SDS011;2730;51.512;7.504;2023-11-21T13:28:33;21.77;;;7.72;;
5414;SDS011;2730;51.512;7.504;2023-11-21T13:31:02;18.30;;;7.45;;
5414;SDS011;2730;51.512;7.504;2023-11-21T13:33:34;13.57;;;6.53;;
5414;SDS011;2730;51.512;7.504;2023-11-21T13:36:03;19.08;;;7.30;;
5414;SDS011;2730;51.512;7.504;2023-11-21T13:38:33;12.60;;;6.20;;
5414;SDS011;2730;51.512;7.504;2023-11-21T13:41:02;13.50;;;6.65;;
5414;SDS011;2730;51.512;7.504;2023-11-21T13:43:32;20.42;;;7.53;;
5414;SDS011;2730;51.512;7.504;2023-11-21T13:46:01;15.23;;;5.95;;
5414;SDS011;2730;51.512;7.504;2023-11-21T13:48:35;18.05;;;7.22;;
5414;SDS011;2730;51.512;7.504;2023-11-21T13:51:07;15.55;;;6.78;;
5414;SDS011;2730;51.512;7.504;2023-11-21T13:53:40;12.68;;;5.57;;
5414;SDS011;2730;51.512;7.504;2023-11-21T13:56:09;13.57;;;6.53;;
5414;SDS011;2730;51.512;7.504;2023-11-21T13:58:37;11.52;;;5.50;;
5414;SDS011;2730;51.512;7.504;2023-11-21T14:01:15;15.95;;;5.57;;
5414;SDS011;2730;51.512;7.504;2023-11-21T14:04:10;14.05;;;6.55;;
5414;SDS011;2730;51.512;7.504;2023-11-21T14:06:45;10.10;;;5.43;;
5414;SDS011;2730;51.512;7.504;2023-11-21T14:09:14;13.13;;;5.13;;
5414;SDS011;2730;51.512;7.504;2023-11-21T14:11:50;12.80;;;5.93;;
5414;SDS011;2730;51.512;7.504;2023-11-21T14:14:18;9.05;;;5.32;;
5414;SDS011;2730;51.512;7.504;2023-11-21T14:16:46;13.80;;;5.35;;
5414;SDS011;2730;51.512;7.504;2023-11-21T14:19:13;18.70;;;5.72;;
5414;SDS011;2730;51.512;7.504;2023-11-21T14:21:42;9.38;;;4.57;;
5414;SDS011;2730;51.512;7.504;2023-11-21T14:24:09;10.55;;;4.90;;
5414;SDS011;2730;51.512;7.504;2023-11-21T14:26:38;14.60;;;6.05;;
5414;SDS011;2730;51.512;7.504;2023-11-21T14:29:07;10.15;;;4.60;;
5414;SDS011;2730;51.512;7.504;2023-11-21T14:31:36;12.05;;;5.82;;
5414;SDS011;2730;51.512;7.504;2023-11-21T14:34:03;13.30;;;5.47;;
5414;SDS011;2730;51.512;7.504;2023-11-21T14:36:31;11.35;;;5.95;;
5414;SDS011;2730;51.512;7.504;2023-11-21T14:38:58;10.55;;;5.35;;
5414;SDS011;2730;51.512;7.504;2023-11-21T14:41:27;12.00;;;6.05;;
5414;SDS011;2730;51.512;7.504;2023-11-21T14:43:54;11.48;;;5.78;;
5414;SDS011;2730;51.512;7.504;2023-11-21T14:46:23;12.40;;;5.70;;
5414;SDS011;2730;51.512;7.504;2023-11-21T14:48:51;12.10;;;5.53;;
5414;SDS011;2730;51.512;7.504;2023-11-21T14:51:27;6.32;;;4.22;;
5414;SDS011;2730;51.512;7.504;2023-11-21T14:53:56;4.15;;;3.03;;
5414;SDS011;2730;51.512;7.504;2023-11-21T14:56:30;3.20;;;2.90;;
5414;SDS011;2730;51.512;7.504;2023-11-21T14:58:59;4.78;;;3.15;;
5414;SDS011;2730;51.512;7.504;2023-11-21T15:01:32;6.07;;;3.05;;
5414;SDS011;2730;51.512;7.504;2023-11-21T15:04:13;6.80;;;3.90;;
5414;SDS011;2730;51.512;7.504;2023-11-21T15:06:52;4.55;;;2.75;;